createdAt,value
2017-05-09T00:00:16.835Z,5.24
2017-05-09T00:02:45.731Z,5.30
2017-05-09T00:05:14.403Z,6.10
2017-05-09T00:07:42.378Z,10.16
2017-05-09T00:10:10.682Z,11.26
2017-05-09T00:12:38.618Z,4.74
2017-05-09T00:15:07.015Z,6.80
2017-05-09T00:17:34.943Z,4.08
2017-05-09T00:20:03.250Z,4.78
2017-05-09T00:22:31.230Z,6.72
2017-05-09T00:24:59.154Z,4.14
2017-05-09T00:27:27.455Z,7.68
2017-05-09T00:29:55.804Z,4.24
2017-05-09T00:32:24.850Z,8.16
2017-05-09T00:34:53.747Z,8.06
2017-05-09T00:37:22.973Z,8.28
2017-05-09T00:39:51.888Z,7.10
2017-05-09T00:42:20.591Z,4.98
2017-05-09T00:44:49.098Z,8.78
2017-05-09T00:47:17.490Z,8.64
2017-05-09T00:49:45.424Z,5.50
2017-05-09T00:52:14.782Z,4.52
2017-05-09T00:54:43.657Z,9.30
2017-05-09T00:57:11.958Z,8.04
2017-05-09T00:59:40.711Z,6.04
2017-05-09T01:02:09.015Z,7.72
2017-05-09T01:04:37.700Z,7.04
2017-05-09T01:07:06.035Z,19.90
2017-05-09T01:09:34.478Z,3.98
2017-05-09T01:12:03.518Z,6.80
2017-05-09T01:14:32.230Z,6.26
2017-05-09T01:17:01.119Z,7.54
2017-05-09T01:19:30.155Z,7.40
2017-05-09T01:21:58.483Z,5.72
2017-05-09T01:24:26.782Z,17.40
2017-05-09T01:26:55.087Z,12.32
2017-05-09T01:29:23.435Z,8.12
2017-05-09T01:31:51.387Z,8.14
2017-05-09T01:34:20.451Z,6.86
2017-05-09T01:36:48.454Z,8.86
2017-05-09T01:39:16.388Z,8.92
2017-05-09T01:41:45.431Z,12.82
2017-05-09T01:44:13.767Z,11.46
2017-05-09T01:46:42.071Z,8.40
2017-05-09T01:49:11.379Z,13.00
2017-05-09T01:51:40.456Z,7.50
2017-05-09T01:54:09.499Z,6.98
2017-05-09T01:56:38.199Z,7.26
2017-05-09T01:59:07.155Z,8.68
2017-05-09T02:01:36.057Z,7.82
2017-05-09T02:04:04.371Z,7.00
2017-05-09T02:06:32.719Z,9.42
2017-05-09T02:09:01.759Z,13.28
2017-05-09T02:11:30.649Z,7.22
2017-05-09T02:13:59.352Z,6.82
2017-05-09T02:16:28.387Z,9.94
2017-05-09T02:18:56.313Z,7.78
2017-05-09T02:21:25.030Z,8.75
2017-05-09T02:23:53.417Z,10.62
2017-05-09T02:26:21.730Z,5.90
2017-05-09T02:28:50.831Z,8.92
2017-05-09T02:31:19.139Z,9.42
2017-05-09T02:33:47.834Z,7.20
2017-05-09T02:36:16.765Z,7.58
2017-05-09T02:38:45.803Z,11.92
2017-05-09T02:41:13.730Z,9.90
2017-05-09T02:43:42.074Z,9.20
2017-05-09T02:46:10.379Z,9.80
2017-05-09T02:48:39.272Z,8.46
2017-05-09T02:51:08.118Z,6.62
2017-05-09T02:53:37.167Z,8.42
2017-05-09T02:56:06.211Z,5.88
2017-05-09T02:58:34.184Z,5.80
2017-05-09T03:01:02.862Z,6.80
2017-05-09T03:03:31.164Z,7.82
2017-05-09T03:06:00.092Z,6.14
2017-05-09T03:08:28.394Z,5.50
2017-05-09T03:10:56.699Z,7.10
2017-05-09T03:13:24.913Z,10.27
2017-05-09T03:15:53.604Z,10.38
2017-05-09T03:18:21.951Z,8.02
2017-05-09T03:20:50.903Z,8.77
2017-05-09T03:23:19.226Z,7.53
2017-05-09T03:25:47.933Z,11.28
2017-05-09T03:28:16.279Z,10.08
2017-05-09T03:30:44.579Z,9.97
2017-05-09T03:33:12.883Z,8.20
2017-05-09T03:35:40.850Z,7.85
2017-05-09T03:38:09.738Z,11.25
2017-05-09T03:40:38.036Z,9.93
2017-05-09T03:43:06.379Z,5.67
2017-05-09T03:45:35.050Z,6.88
2017-05-09T03:48:03.939Z,4.90
2017-05-09T03:50:32.275Z,8.27
2017-05-09T03:53:00.594Z,5.58
2017-05-09T03:55:29.634Z,5.22
2017-05-09T03:57:57.969Z,4.43
2017-05-09T04:00:26.867Z,15.68
2017-05-09T04:02:55.546Z,7.67
2017-05-09T04:05:23.909Z,7.88
2017-05-09T04:07:52.228Z,9.85
2017-05-09T04:10:20.174Z,7.75
2017-05-09T04:12:48.565Z,6.02
2017-05-09T04:15:16.519Z,5.65
2017-05-09T04:17:44.822Z,6.88
2017-05-09T04:20:13.746Z,7.23
2017-05-09T04:22:42.043Z,7.37
2017-05-09T04:25:10.713Z,4.42
2017-05-09T04:27:39.416Z,19.87
2017-05-09T04:30:08.091Z,10.42
2017-05-09T04:32:37.144Z,9.95
2017-05-09T04:35:05.491Z,10.32
2017-05-09T04:37:33.787Z,8.80
2017-05-09T04:40:02.841Z,10.55
2017-05-09T04:42:31.167Z,5.53
2017-05-09T04:44:59.469Z,8.00
2017-05-09T04:47:28.133Z,7.98
2017-05-09T04:49:57.062Z,6.18
2017-05-09T04:52:26.102Z,8.02
2017-05-09T04:54:54.411Z,8.67
2017-05-09T04:57:22.758Z,14.18
2017-05-09T04:59:50.714Z,9.22
2017-05-09T05:02:19.038Z,12.28
2017-05-09T05:04:47.767Z,7.65
2017-05-09T05:07:16.071Z,16.02
2017-05-09T05:09:43.994Z,8.55
2017-05-09T05:12:12.322Z,10.87
2017-05-09T05:14:40.251Z,11.93
2017-05-09T05:17:08.200Z,11.00
2017-05-09T05:19:36.551Z,10.73
2017-05-09T05:22:04.855Z,9.12
2017-05-09T05:24:33.159Z,11.10
2017-05-09T05:27:01.503Z,11.85
2017-05-09T05:29:29.438Z,11.23
2017-05-09T05:31:57.737Z,13.20
2017-05-09T05:34:26.760Z,13.68
2017-05-09T05:36:55.434Z,9.78
2017-05-09T05:39:23.755Z,9.87
2017-05-09T05:41:52.702Z,14.13
2017-05-09T05:44:21.764Z,16.80
2017-05-09T05:46:49.707Z,6.82
2017-05-09T05:49:17.734Z,12.03
2017-05-09T05:51:46.821Z,9.98
2017-05-09T05:54:15.871Z,11.97
2017-05-09T05:56:44.479Z,12.02
2017-05-09T05:59:12.402Z,17.86
2017-05-09T06:01:41.074Z,12.47
2017-05-09T06:04:09.442Z,23.96
2017-05-09T06:06:37.762Z,27.04
2017-05-09T06:09:06.665Z,19.40
2017-05-09T06:11:35.682Z,27.06
2017-05-09T06:14:04.584Z,38.37
2017-05-09T06:16:32.891Z,32.53
2017-05-09T06:19:01.826Z,23.32
2017-05-09T06:21:30.499Z,30.88
2017-05-09T06:23:59.542Z,26.90
2017-05-09T06:26:27.883Z,19.58
2017-05-09T06:28:56.182Z,14.22
2017-05-09T06:31:25.066Z,15.40
2017-05-09T06:33:54.159Z,25.00
2017-05-09T06:36:22.473Z,13.28
2017-05-09T06:38:50.814Z,14.98
2017-05-09T06:41:19.540Z,18.06
2017-05-09T06:43:48.611Z,16.96
2017-05-09T06:46:17.887Z,12.44
2017-05-09T06:48:46.851Z,13.86
2017-05-09T06:51:15.155Z,8.06
2017-05-09T06:53:43.459Z,18.38
2017-05-09T06:56:12.379Z,8.66
2017-05-09T06:58:41.050Z,18.40
2017-05-09T07:01:09.922Z,13.34
2017-05-09T07:03:38.279Z,15.86
2017-05-09T07:06:06.595Z,18.28
2017-05-09T07:08:35.498Z,18.48
2017-05-09T07:11:04.080Z,12.64
2017-05-09T07:13:32.379Z,17.34
2017-05-09T07:16:01.259Z,12.48
2017-05-09T07:18:30.326Z,14.46
2017-05-09T07:20:58.624Z,11.44
2017-05-09T07:23:26.923Z,17.92
2017-05-09T07:25:55.275Z,16.14
2017-05-09T07:28:23.595Z,15.42
2017-05-09T07:30:52.504Z,21.58
2017-05-09T07:33:21.434Z,14.74
2017-05-09T07:35:50.495Z,20.30
2017-05-09T07:38:19.572Z,17.96
2017-05-09T07:40:48.370Z,12.54
2017-05-09T07:43:17.054Z,16.60
2017-05-09T07:45:45.935Z,9.02
2017-05-09T07:48:15.070Z,9.96
2017-05-09T07:50:43.358Z,17.58
2017-05-09T07:53:12.237Z,8.84
2017-05-09T07:55:41.154Z,10.16
2017-05-09T07:58:09.455Z,17.80
2017-05-09T08:00:37.769Z,15.14
2017-05-09T08:03:06.125Z,10.32
2017-05-09T08:05:34.415Z,11.76
2017-05-09T08:08:02.710Z,10.68
2017-05-09T08:10:31.491Z,9.04
2017-05-09T08:13:00.379Z,19.14
2017-05-09T08:15:29.046Z,14.08
2017-05-09T08:17:57.971Z,16.10
2017-05-09T08:20:26.855Z,10.88
2017-05-09T08:22:55.890Z,11.98
2017-05-09T08:25:24.823Z,10.86
2017-05-09T08:27:53.122Z,11.18
2017-05-09T08:30:22.005Z,16.08
2017-05-09T08:32:51.115Z,10.82
2017-05-09T08:35:19.442Z,13.14
2017-05-09T08:37:48.338Z,16.22
2017-05-09T08:40:16.679Z,11.84
2017-05-09T08:42:45.719Z,12.36
2017-05-09T08:45:14.013Z,16.58
2017-05-09T08:47:41.986Z,13.66
2017-05-09T08:50:10.286Z,11.82
2017-05-09T08:52:38.590Z,4.30
2017-05-09T08:55:06.694Z,7.08
2017-05-09T08:57:34.981Z,7.04
2017-05-09T09:00:03.287Z,13.52
2017-05-09T09:02:31.627Z,9.42
2017-05-09T09:05:00.658Z,8.22
2017-05-09T09:07:28.579Z,8.44
2017-05-09T09:09:56.907Z,5.46
2017-05-09T09:12:24.831Z,7.82
2017-05-09T09:14:53.153Z,5.92
2017-05-09T09:17:21.147Z,6.62
2017-05-09T09:19:49.140Z,4.82
2017-05-09T09:22:17.475Z,5.60
2017-05-09T09:24:46.148Z,6.94
2017-05-09T09:30:08.199Z,3.90
2017-05-09T09:32:36.610Z,4.88
2017-05-09T09:35:04.539Z,4.22
2017-05-09T09:37:32.883Z,7.28
2017-05-09T09:40:00.810Z,5.40
2017-05-09T09:42:29.267Z,6.54
2017-05-09T09:44:57.855Z,6.74
2017-05-09T09:47:26.528Z,6.40
2017-05-09T09:49:54.818Z,9.52
2017-05-09T09:52:22.792Z,7.70
2017-05-09T09:54:50.727Z,10.08
2017-05-09T09:57:19.046Z,4.68
2017-05-09T09:59:47.021Z,5.84
2017-05-09T10:02:14.950Z,6.48
2017-05-09T10:04:43.827Z,14.38
2017-05-09T10:07:12.238Z,16.98
2017-05-09T10:09:40.532Z,6.22
2017-05-09T10:12:08.836Z,9.92
2017-05-09T10:14:38.047Z,5.98
2017-05-09T10:17:06.335Z,9.28
2017-05-09T10:19:34.652Z,14.72
2017-05-09T10:22:03.566Z,6.78
2017-05-09T10:24:32.441Z,7.46
2017-05-09T10:27:00.359Z,6.60
2017-05-09T10:29:28.358Z,10.30
2017-05-09T10:31:56.651Z,7.64
2017-05-09T10:34:24.579Z,7.64
2017-05-09T10:36:52.950Z,13.18
2017-05-09T10:39:21.627Z,10.42
2017-05-09T10:41:49.937Z,6.80
2017-05-09T10:44:19.057Z,7.80
2017-05-09T10:46:47.726Z,9.20
2017-05-09T10:49:16.023Z,9.86
2017-05-09T10:51:44.344Z,8.94
2017-05-09T10:54:12.639Z,6.48
2017-05-09T10:56:41.523Z,6.18
2017-05-09T10:59:10.223Z,8.58
2017-05-09T11:01:38.528Z,6.64
2017-05-09T11:04:06.838Z,9.16
2017-05-09T11:06:35.178Z,9.62
2017-05-09T11:09:04.051Z,9.84
2017-05-09T11:11:32.348Z,6.58
2017-05-09T11:14:00.783Z,4.18
2017-05-09T11:16:29.658Z,5.28
2017-05-09T11:18:58.687Z,4.40
2017-05-09T11:21:26.671Z,7.46
2017-05-09T11:23:55.327Z,7.68
2017-05-09T11:26:23.627Z,6.18
2017-05-09T11:28:52.554Z,6.40
2017-05-09T11:31:21.240Z,5.96
2017-05-09T11:33:49.549Z,5.84
2017-05-09T11:36:19.070Z,7.70
2017-05-09T11:38:47.967Z,6.68
2017-05-09T11:41:16.280Z,7.60
2017-05-09T11:43:44.651Z,8.58
2017-05-09T11:46:12.574Z,6.50
2017-05-09T11:48:40.863Z,6.34
2017-05-09T11:51:09.223Z,4.70
2017-05-09T11:53:38.271Z,9.76
2017-05-09T11:56:06.209Z,6.14
2017-05-09T11:58:34.565Z,6.72
2017-05-09T12:01:03.231Z,8.74
2017-05-09T12:03:31.523Z,3.56
2017-05-09T12:05:59.978Z,3.26
2017-05-09T12:08:28.639Z,5.52
2017-05-09T12:10:56.934Z,3.58
2017-05-09T12:13:26.018Z,5.62
2017-05-09T12:15:54.311Z,7.20
2017-05-09T12:18:22.615Z,2.64
2017-05-09T12:20:51.557Z,5.96
2017-05-09T12:23:19.496Z,4.26
2017-05-09T12:25:47.420Z,5.72
2017-05-09T12:28:16.495Z,7.72
2017-05-09T12:30:44.790Z,4.68
2017-05-09T12:33:13.074Z,6.26
2017-05-09T12:35:41.402Z,3.34
2017-05-09T12:38:10.067Z,5.84
2017-05-09T12:40:38.387Z,8.64
2017-05-09T12:43:07.108Z,10.98
2017-05-09T12:45:35.415Z,7.62
2017-05-09T12:48:03.712Z,7.88
2017-05-09T12:50:32.791Z,3.72
2017-05-09T12:53:00.717Z,7.26
2017-05-09T12:55:29.006Z,7.34
2017-05-09T12:57:58.094Z,4.80
2017-05-09T13:00:26.970Z,6.58
2017-05-09T13:02:56.003Z,6.98
2017-05-09T13:05:25.239Z,5.08
2017-05-09T13:07:53.534Z,4.96
2017-05-09T13:10:22.406Z,7.10
2017-05-09T13:12:50.766Z,7.08
2017-05-09T13:15:19.065Z,5.94
2017-05-09T13:17:47.943Z,8.62
2017-05-09T13:20:16.654Z,5.62
2017-05-09T13:22:44.947Z,8.30
2017-05-09T13:25:12.867Z,4.04
2017-05-09T13:27:42.650Z,7.22
2017-05-09T13:30:10.566Z,3.48
2017-05-09T13:32:39.228Z,8.76
2017-05-09T13:35:07.577Z,4.62
2017-05-09T13:37:35.870Z,4.16
2017-05-09T13:40:04.171Z,14.16
2017-05-09T13:42:33.446Z,4.88
2017-05-09T13:45:02.322Z,6.94
2017-05-09T13:47:31.195Z,3.54
2017-05-09T13:50:00.669Z,7.26
2017-05-09T13:52:28.598Z,7.30
2017-05-09T13:54:56.522Z,6.26
2017-05-09T13:57:24.887Z,4.24
2017-05-09T13:59:53.922Z,7.92
2017-05-09T14:02:21.876Z,5.40
2017-05-09T14:04:50.649Z,7.94
2017-05-09T14:07:19.728Z,6.26
2017-05-09T14:09:48.780Z,8.22
2017-05-09T14:12:17.157Z,4.34
2017-05-09T14:14:45.456Z,6.92
2017-05-09T14:17:13.751Z,6.40
2017-05-09T14:19:42.094Z,4.10
2017-05-09T14:22:11.139Z,5.04
2017-05-09T14:24:39.072Z,6.68
2017-05-09T14:27:07.786Z,5.18
2017-05-09T14:29:36.082Z,3.98
2017-05-09T14:32:04.012Z,3.46
2017-05-09T14:34:32.790Z,8.74
2017-05-09T14:37:00.727Z,5.30
2017-05-09T14:39:29.406Z,8.10
2017-05-09T14:41:59.058Z,6.78
2017-05-09T14:44:27.729Z,7.88
2017-05-09T14:46:56.059Z,5.62
2017-05-09T14:49:24.801Z,6.30
2017-05-09T14:51:53.722Z,7.28
2017-05-09T14:54:22.415Z,6.78
2017-05-09T14:56:50.425Z,6.70
2017-05-09T14:59:18.381Z,7.26
2017-05-09T15:01:47.062Z,14.24
2017-05-09T15:04:15.051Z,7.20
2017-05-09T15:06:42.980Z,5.90
2017-05-09T15:09:11.650Z,6.02
2017-05-09T15:11:39.997Z,8.32
2017-05-09T15:14:07.931Z,8.26
2017-05-09T15:16:35.859Z,8.66
2017-05-09T15:19:04.850Z,5.60
2017-05-09T15:21:33.518Z,5.92
2017-05-09T15:24:01.447Z,7.30
2017-05-09T15:26:30.554Z,5.34
2017-05-09T15:28:59.442Z,7.80
2017-05-09T15:31:27.743Z,6.12
2017-05-09T15:33:56.150Z,5.34
2017-05-09T15:36:24.127Z,15.20
2017-05-09T15:38:52.466Z,15.70
2017-05-09T15:41:21.088Z,20.98
2017-05-09T15:43:49.413Z,9.36
2017-05-09T15:46:17.749Z,6.12
2017-05-09T15:48:46.528Z,5.28
2017-05-09T15:51:14.850Z,8.92
2017-05-09T15:53:43.743Z,3.62
2017-05-09T15:56:13.004Z,8.96
2017-05-09T15:58:41.325Z,5.20
2017-05-09T16:01:09.264Z,4.84
2017-05-09T16:03:38.214Z,5.00
2017-05-09T16:06:06.616Z,7.40
2017-05-09T16:08:35.666Z,2.92
2017-05-09T16:11:04.048Z,4.82
2017-05-09T16:13:32.930Z,5.60
2017-05-09T16:16:00.859Z,5.70
2017-05-09T16:18:29.229Z,6.42
2017-05-09T16:20:58.278Z,5.82
2017-05-09T16:23:26.594Z,5.68
2017-05-09T16:25:54.967Z,4.52
2017-05-09T16:28:22.931Z,11.68
2017-05-09T16:30:51.340Z,4.24
2017-05-09T16:33:19.716Z,9.08
2017-05-09T16:35:48.467Z,4.22
2017-05-09T16:38:16.780Z,4.08
2017-05-09T16:40:45.420Z,5.50
2017-05-09T16:43:13.407Z,6.30
2017-05-09T16:45:41.343Z,5.60
2017-05-09T16:48:09.811Z,7.38
2017-05-09T16:50:38.125Z,4.76
2017-05-09T16:53:06.422Z,4.32
2017-05-09T16:55:35.372Z,4.68
2017-05-09T16:58:03.680Z,5.38
2017-05-09T17:00:31.991Z,7.74
2017-05-09T17:03:00.391Z,5.40
2017-05-09T17:05:28.371Z,4.40
2017-05-09T17:07:56.693Z,7.30
2017-05-09T17:10:25.662Z,4.86
2017-05-09T17:12:54.109Z,3.76
2017-05-09T17:15:22.449Z,7.52
2017-05-09T17:17:50.848Z,7.88
2017-05-09T17:20:19.176Z,8.36
2017-05-09T17:22:47.123Z,6.06
2017-05-09T17:25:15.214Z,8.10
2017-05-09T17:27:44.100Z,8.44
2017-05-09T17:30:12.980Z,7.56
2017-05-09T17:32:41.519Z,5.78
2017-05-09T17:35:09.463Z,5.34
2017-05-09T17:37:37.387Z,5.10
2017-05-09T17:40:06.035Z,5.28
2017-05-09T17:42:34.704Z,7.24
2017-05-09T17:45:03.019Z,10.76
2017-05-09T17:47:31.635Z,4.58
2017-05-09T17:50:00.675Z,4.80
2017-05-09T17:52:28.986Z,6.54
2017-05-09T17:54:58.478Z,5.30
2017-05-09T17:57:26.415Z,4.22
2017-05-09T17:59:54.719Z,4.46
2017-05-09T18:02:22.728Z,5.12
2017-05-09T18:04:51.039Z,9.28
2017-05-09T18:07:18.984Z,4.60
2017-05-09T18:09:46.970Z,4.38
2017-05-09T18:12:15.275Z,5.44
2017-05-09T18:14:43.211Z,5.44
2017-05-09T18:17:11.563Z,5.00
2017-05-09T18:19:40.238Z,5.62
2017-05-09T18:22:08.543Z,3.22
2017-05-09T18:24:36.941Z,7.32
2017-05-09T18:27:05.830Z,9.32
2017-05-09T18:29:34.122Z,8.36
2017-05-09T18:32:03.258Z,5.30
2017-05-09T18:34:32.142Z,3.80
2017-05-09T18:37:01.027Z,3.22
2017-05-09T18:39:29.373Z,10.00
2017-05-09T18:41:58.423Z,7.36
2017-05-09T18:44:27.317Z,3.54
2017-05-09T18:46:56.475Z,4.74
2017-05-09T18:49:24.813Z,4.80
2017-05-09T18:51:54.325Z,4.90
2017-05-09T18:54:23.023Z,4.38
2017-05-09T18:56:51.035Z,4.84
2017-05-09T18:59:19.794Z,4.86
2017-05-09T19:01:48.172Z,6.68
2017-05-09T19:04:17.063Z,8.30
2017-05-09T19:06:45.800Z,7.70
2017-05-09T19:09:14.102Z,7.66
2017-05-09T19:11:42.431Z,4.04
2017-05-09T19:14:10.423Z,4.90
2017-05-09T19:16:38.724Z,6.88
2017-05-09T19:19:07.041Z,10.04
2017-05-09T19:21:36.415Z,6.84
2017-05-09T19:24:05.300Z,5.20
2017-05-09T19:26:34.460Z,5.42
2017-05-09T19:29:02.884Z,6.48
2017-05-09T19:31:30.818Z,6.78
2017-05-09T19:33:58.792Z,4.72
2017-05-09T19:36:26.819Z,4.42
2017-05-09T19:38:55.155Z,6.00
2017-05-09T19:41:23.120Z,3.92
2017-05-09T19:43:51.117Z,6.82
2017-05-09T19:46:19.503Z,9.26
2017-05-09T19:48:47.868Z,10.28
2017-05-09T19:51:16.975Z,6.78
2017-05-09T19:53:45.279Z,7.72
2017-05-09T19:56:14.175Z,10.36
2017-05-09T19:58:43.107Z,5.26
2017-05-09T20:01:11.887Z,7.98
2017-05-09T20:03:40.199Z,7.38
2017-05-09T20:06:09.839Z,6.96
2017-05-09T20:08:38.524Z,16.22
2017-05-09T20:11:06.459Z,7.22
2017-05-09T20:13:34.436Z,5.24
2017-05-09T20:16:02.737Z,6.32
2017-05-09T20:18:30.671Z,8.30
2017-05-09T20:21:02.486Z,9.28
2017-05-09T20:23:31.150Z,5.60
2017-05-09T20:25:59.446Z,7.44
2017-05-09T20:28:28.168Z,4.18
2017-05-09T20:30:57.055Z,4.92
2017-05-09T20:33:25.964Z,4.98
2017-05-09T20:35:54.807Z,5.50
2017-05-09T20:38:23.711Z,5.36
2017-05-09T20:40:52.784Z,6.40
2017-05-09T20:43:21.063Z,8.26
2017-05-09T20:45:50.120Z,7.12
2017-05-09T20:48:18.051Z,7.94
2017-05-09T20:50:46.391Z,9.52
2017-05-09T20:53:14.328Z,6.38
2017-05-09T20:55:42.626Z,5.74
2017-05-09T20:58:11.324Z,9.96
2017-05-09T21:00:39.623Z,5.54
2017-05-09T21:03:07.918Z,7.68
2017-05-09T21:05:37.032Z,9.54
2017-05-09T21:08:04.967Z,7.64
2017-05-09T21:10:34.026Z,10.78
2017-05-09T21:13:03.166Z,9.24
2017-05-09T21:15:31.826Z,6.00
2017-05-09T21:18:00.122Z,8.32
2017-05-09T21:20:28.458Z,5.92
2017-05-09T21:22:57.336Z,5.32
2017-05-09T21:25:25.634Z,8.56
2017-05-09T21:27:55.458Z,6.94
2017-05-09T21:30:24.187Z,9.34
2017-05-09T21:32:52.130Z,10.30
2017-05-09T21:35:20.750Z,8.70
2017-05-09T21:37:49.062Z,8.24
2017-05-09T21:40:17.366Z,5.58
2017-05-09T21:42:46.471Z,6.36
2017-05-09T21:45:14.762Z,7.80
2017-05-09T21:47:43.059Z,8.28
2017-05-09T21:50:11.018Z,8.92
2017-05-09T21:52:39.899Z,8.34
2017-05-09T21:55:08.794Z,7.64
2017-05-09T21:57:37.730Z,9.08
2017-05-09T22:00:06.027Z,15.48
2017-05-09T22:02:33.942Z,7.52
2017-05-09T22:05:02.292Z,8.42
2017-05-09T22:07:30.586Z,7.36
2017-05-09T22:09:59.477Z,11.04
2017-05-09T22:12:27.840Z,8.64
2017-05-09T22:14:56.135Z,6.46
2017-05-09T22:17:24.803Z,8.08
2017-05-09T22:19:53.746Z,8.56
2017-05-09T22:22:22.419Z,8.86
2017-05-09T22:24:50.369Z,9.70
2017-05-09T22:27:18.730Z,10.68
2017-05-09T22:29:46.675Z,12.16
2017-05-09T22:32:15.707Z,9.68
2017-05-09T22:34:44.054Z,12.66
2017-05-09T22:37:12.343Z,8.48
2017-05-09T22:39:41.230Z,9.42
2017-05-09T22:42:09.942Z,7.78
2017-05-09T22:44:38.247Z,11.88
2017-05-09T22:47:07.143Z,9.20
2017-05-09T22:49:35.491Z,7.80
2017-05-09T22:52:03.779Z,8.80
2017-05-09T22:54:31.707Z,9.88
2017-05-09T22:57:00.927Z,7.64
2017-05-09T22:59:29.959Z,8.26
2017-05-09T23:01:58.259Z,10.74
2017-05-09T23:04:27.022Z,12.82
2017-05-09T23:06:55.898Z,8.76
2017-05-09T23:09:24.935Z,8.96
2017-05-09T23:11:53.282Z,8.62
2017-05-09T23:14:21.596Z,10.46
2017-05-09T23:16:49.546Z,8.22
2017-05-09T23:19:18.549Z,9.80
2017-05-09T23:21:46.855Z,11.26
2017-05-09T23:24:15.887Z,11.10
2017-05-09T23:26:44.974Z,10.74
2017-05-09T23:29:13.853Z,7.10
2017-05-09T23:31:42.514Z,7.32
2017-05-09T23:34:10.863Z,14.54
2017-05-09T23:36:39.738Z,9.56
2017-05-09T23:39:08.042Z,7.54
2017-05-09T23:41:36.380Z,12.28
2017-05-09T23:44:05.259Z,9.16
2017-05-09T23:46:34.292Z,5.50
2017-05-09T23:49:02.622Z,8.44
2017-05-09T23:51:30.920Z,10.90
2017-05-09T23:53:59.209Z,10.12
2017-05-09T23:56:28.130Z,6.88
2017-05-09T23:58:57.166Z,8.80
